sensor_id;sensor_type;location;lat;lon;timestamp;pressure;altitude;pressure_sealevel;temperature;humidity
59493;BME280;45497;43.996;22.876;2023-09-19T00:02:06;101469.03;;;19.05;51.38
59493;BME280;45497;43.996;22.876;2023-09-19T00:04:33;101466.78;;;19.02;51.54
59493;BME280;45497;43.996;22.876;2023-09-19T00:06:59;101456.00;;;19.08;51.21
59493;BME280;45497;43.996;22.876;2023-09-19T00:09:25;101450.88;;;19.07;51.31
59493;BME280;45497;43.996;22.876;2023-09-19T00:11:53;101442.97;;;19.12;51.18
59493;BME280;45497;43.996;22.876;2023-09-19T00:14:19;101434.31;;;19.17;51.16
59493;BME280;45497;43.996;22.876;2023-09-19T00:16:45;101430.38;;;19.06;51.64
59493;BME280;45497;43.996;22.876;2023-09-19T00:19:14;101420.25;;;19.01;51.95
59493;BME280;45497;43.996;22.876;2023-09-19T00:21:41;101424.00;;;19.07;51.86
59493;BME280;45497;43.996;22.876;2023-09-19T00:24:07;101426.03;;;19.12;51.60
59493;BME280;45497;43.996;22.876;2023-09-19T00:26:34;101444.63;;;19.13;51.81
59493;BME280;45497;43.996;22.876;2023-09-19T00:29:00;101442.97;;;19.12;52.13
59493;BME280;45497;43.996;22.876;2023-09-19T00:31:33;101444.44;;;19.15;51.93
59493;BME280;45497;43.996;22.876;2023-09-19T00:33:59;101444.84;;;19.12;52.15
59493;BME280;45497;43.996;22.876;2023-09-19T00:36:36;101445.66;;;19.25;51.86
59493;BME280;45497;43.996;22.876;2023-09-19T00:39:05;101443.97;;;19.38;51.44
59493;BME280;45497;43.996;22.876;2023-09-19T00:41:32;101442.91;;;19.52;51.05
59493;BME280;45497;43.996;22.876;2023-09-19T00:43:58;101431.72;;;19.55;50.89
59493;BME280;45497;43.996;22.876;2023-09-19T00:46:26;101433.59;;;19.55;51.00
59493;BME280;45497;43.996;22.876;2023-09-19T00:48:56;101425.31;;;19.56;50.99
59493;BME280;45497;43.996;22.876;2023-09-19T00:51:22;101434.84;;;19.45;51.47
59493;BME280;45497;43.996;22.876;2023-09-19T00:53:52;101440.25;;;19.39;52.03
59493;BME280;45497;43.996;22.876;2023-09-19T00:56:18;101439.22;;;19.33;52.16
59493;BME280;45497;43.996;22.876;2023-09-19T00:58:46;101440.84;;;19.41;51.96
59493;BME280;45497;43.996;22.876;2023-09-19T01:01:13;101428.66;;;19.45;51.94
59493;BME280;45497;43.996;22.876;2023-09-19T01:03:41;101428.41;;;19.53;51.62
59493;BME280;45497;43.996;22.876;2023-09-19T01:06:09;101427.13;;;19.62;51.42
59493;BME280;45497;43.996;22.876;2023-09-19T01:08:35;101427.94;;;19.70;51.13
59493;BME280;45497;43.996;22.876;2023-09-19T01:14:11;101435.03;;;19.57;51.55
59493;BME280;45497;43.996;22.876;2023-09-19T01:28:43;101435.44;;;19.61;51.37
59493;BME280;45497;43.996;22.876;2023-09-19T01:31:17;101438.09;;;19.67;51.07
59493;BME280;45497;43.996;22.876;2023-09-19T01:33:59;101438.53;;;19.64;51.17
59493;BME280;45497;43.996;22.876;2023-09-19T01:36:27;101446.38;;;19.66;51.34
59493;BME280;45497;43.996;22.876;2023-09-19T01:38:57;101437.91;;;19.62;51.32
59493;BME280;45497;43.996;22.876;2023-09-19T01:41:54;101442.66;;;19.60;51.62
59493;BME280;45497;43.996;22.876;2023-09-19T01:44:40;101448.88;;;19.61;51.70
59493;BME280;45497;43.996;22.876;2023-09-19T01:47:23;101444.75;;;19.52;52.21
59493;BME280;45497;43.996;22.876;2023-09-19T01:50:13;101448.31;;;19.39;52.64
59493;BME280;45497;43.996;22.876;2023-09-19T01:52:56;101438.41;;;19.19;53.20
59493;BME280;45497;43.996;22.876;2023-09-19T01:55:26;101447.75;;;19.23;53.19
59493;BME280;45497;43.996;22.876;2023-09-19T01:58:01;101438.63;;;19.31;52.54
59493;BME280;45497;43.996;22.876;2023-09-19T02:00:32;101447.06;;;19.41;52.52
59493;BME280;45497;43.996;22.876;2023-09-19T02:03:00;101440.66;;;19.42;52.60
59493;BME280;45497;43.996;22.876;2023-09-19T02:05:30;101436.53;;;19.46;52.30
59493;BME280;45497;43.996;22.876;2023-09-19T02:07:56;101444.75;;;19.52;52.27
59493;BME280;45497;43.996;22.876;2023-09-19T02:10:22;101431.50;;;19.57;52.04
59493;BME280;45497;43.996;22.876;2023-09-19T02:12:50;101435.84;;;19.64;51.78
59493;BME280;45497;43.996;22.876;2023-09-19T02:15:17;101435.25;;;19.56;52.11
59493;BME280;45497;43.996;22.876;2023-09-19T02:17:43;101442.09;;;19.45;52.50
59493;BME280;45497;43.996;22.876;2023-09-19T02:20:10;101457.03;;;19.34;53.23
59493;BME280;45497;43.996;22.876;2023-09-19T02:22:41;101453.94;;;19.24;53.54
59493;BME280;45497;43.996;22.876;2023-09-19T02:25:07;101449.19;;;19.13;54.03
59493;BME280;45497;43.996;22.876;2023-09-19T02:27:35;101444.44;;;19.21;53.79
59493;BME280;45497;43.996;22.876;2023-09-19T02:30:01;101443.38;;;19.29;53.39
59493;BME280;45497;43.996;22.876;2023-09-19T02:32:30;101446.25;;;19.34;53.21
59493;BME280;45497;43.996;22.876;2023-09-19T02:35:02;101440.69;;;19.36;52.99
59493;BME280;45497;43.996;22.876;2023-09-19T02:37:30;101441.31;;;19.31;52.92
59493;BME280;45497;43.996;22.876;2023-09-19T02:39:56;101444.81;;;19.32;52.97
59493;BME280;45497;43.996;22.876;2023-09-19T02:42:21;101434.69;;;19.27;53.03
59493;BME280;45497;43.996;22.876;2023-09-19T02:44:47;101442.97;;;19.19;53.26
59493;BME280;45497;43.996;22.876;2023-09-19T02:47:13;101435.31;;;19.16;53.37
59493;BME280;45497;43.996;22.876;2023-09-19T02:49:40;101422.53;;;19.11;53.32
59493;BME280;45497;43.996;22.876;2023-09-19T02:52:08;101430.78;;;19.09;53.32
59493;BME280;45497;43.996;22.876;2023-09-19T02:54:33;101424.81;;;19.14;53.06
59493;BME280;45497;43.996;22.876;2023-09-19T02:56:59;101425.19;;;19.24;52.93
59493;BME280;45497;43.996;22.876;2023-09-19T02:59:25;101422.09;;;19.21;52.94
59493;BME280;45497;43.996;22.876;2023-09-19T03:01:50;101425.38;;;19.23;52.79
59493;BME280;45497;43.996;22.876;2023-09-19T03:04:16;101419.81;;;19.24;52.47
59493;BME280;45497;43.996;22.876;2023-09-19T03:06:45;101418.13;;;19.30;52.54
59493;BME280;45497;43.996;22.876;2023-09-19T03:09:11;101407.78;;;19.34;52.42
59493;BME280;45497;43.996;22.876;2023-09-19T03:11:37;101408.03;;;19.32;52.19
59493;BME280;45497;43.996;22.876;2023-09-19T03:14:03;101408.63;;;19.34;52.39
59493;BME280;45497;43.996;22.876;2023-09-19T03:16:31;101414.84;;;19.28;52.37
59493;BME280;45497;43.996;22.876;2023-09-19T03:18:59;101409.66;;;19.26;52.40
59493;BME280;45497;43.996;22.876;2023-09-19T03:21:25;101409.44;;;19.28;52.33
59493;BME280;45497;43.996;22.876;2023-09-19T03:23:51;101426.00;;;19.32;52.67
59493;BME280;45497;43.996;22.876;2023-09-19T03:26:17;101429.72;;;19.31;52.80
59493;BME280;45497;43.996;22.876;2023-09-19T03:28:45;101424.34;;;19.31;53.18
59493;BME280;45497;43.996;22.876;2023-09-19T03:31:11;101414.84;;;19.28;53.21
59493;BME280;45497;43.996;22.876;2023-09-19T03:33:36;101417.34;;;19.16;53.78
59493;BME280;45497;43.996;22.876;2023-09-19T03:36:05;101415.28;;;19.18;53.96
59493;BME280;45497;43.996;22.876;2023-09-19T03:38:32;101417.53;;;19.28;53.63
59493;BME280;45497;43.996;22.876;2023-09-19T03:40:58;101422.91;;;19.28;53.77
59493;BME280;45497;43.996;22.876;2023-09-19T03:43:24;101415.91;;;19.20;54.01
59493;BME280;45497;43.996;22.876;2023-09-19T03:45:49;101411.31;;;19.27;53.82
59493;BME280;45497;43.996;22.876;2023-09-19T03:48:16;101411.53;;;19.33;53.63
59493;BME280;45497;43.996;22.876;2023-09-19T03:50:43;101419.75;;;19.44;53.20
59493;BME280;45497;43.996;22.876;2023-09-19T03:53:11;101410.44;;;19.47;53.30
59493;BME280;45497;43.996;22.876;2023-09-19T03:55:37;101407.34;;;19.50;53.17
59493;BME280;45497;43.996;22.876;2023-09-19T03:58:04;101405.69;;;19.49;53.17
59493;BME280;45497;43.996;22.876;2023-09-19T04:00:30;101413.53;;;19.51;53.13
59493;BME280;45497;43.996;22.876;2023-09-19T04:02:56;101408.78;;;19.46;53.15
59493;BME280;45497;43.996;22.876;2023-09-19T04:05:23;101409.00;;;19.44;53.38
59493;BME280;45497;43.996;22.876;2023-09-19T04:07:49;101411.06;;;19.49;53.34
59493;BME280;45497;43.996;22.876;2023-09-19T04:10:16;101408.16;;;19.51;53.26
59493;BME280;45497;43.996;22.876;2023-09-19T04:12:55;101407.56;;;19.48;53.47
59493;BME280;45497;43.996;22.876;2023-09-19T04:15:22;101391.84;;;19.39;53.67
59493;BME280;45497;43.996;22.876;2023-09-19T04:17:51;101395.59;;;19.38;53.72
59493;BME280;45497;43.996;22.876;2023-09-19T04:20:18;101397.22;;;19.45;53.61
59493;BME280;45497;43.996;22.876;2023-09-19T04:22:45;101399.69;;;19.47;53.55
59493;BME280;45497;43.996;22.876;2023-09-19T04:25:12;101391.63;;;19.40;53.68
59493;BME280;45497;43.996;22.876;2023-09-19T04:27:38;101392.25;;;19.42;53.69
59493;BME280;45497;43.996;22.876;2023-09-19T04:30:06;101398.84;;;19.53;53.45
59493;BME280;45497;43.996;22.876;2023-09-19T04:32:38;101400.47;;;19.61;53.08
59493;BME280;45497;43.996;22.876;2023-09-19T04:35:08;101388.84;;;19.67;53.05
59493;BME280;45497;43.996;22.876;2023-09-19T04:37:39;101398.41;;;19.63;53.10
59493;BME280;45497;43.996;22.876;2023-09-19T04:40:09;101389.88;;;19.66;52.97
59493;BME280;45497;43.996;22.876;2023-09-19T04:42:40;101390.13;;;19.58;53.28
59493;BME280;45497;43.996;22.876;2023-09-19T04:45:06;101392.03;;;19.51;53.33
59493;BME280;45497;43.996;22.876;2023-09-19T04:47:33;101391.22;;;19.50;53.42
59493;BME280;45497;43.996;22.876;2023-09-19T04:49:58;101388.31;;;19.45;53.72
59493;BME280;45497;43.996;22.876;2023-09-19T04:52:25;101385.84;;;19.43;53.66
59493;BME280;45497;43.996;22.876;2023-09-19T04:54:50;101400.31;;;19.49;53.72
59493;BME280;45497;43.996;22.876;2023-09-19T04:57:16;101403.59;;;19.51;53.45
59493;BME280;45497;43.996;22.876;2023-09-19T04:59:41;101428.06;;;19.43;53.33
59493;BME280;45497;43.996;22.876;2023-09-19T05:02:07;101434.25;;;19.37;53.56
59493;BME280;45497;43.996;22.876;2023-09-19T05:04:38;101430.97;;;19.28;53.83
59493;BME280;45497;43.996;22.876;2023-09-19T05:07:04;101419.13;;;19.42;54.00
59493;BME280;45497;43.996;22.876;2023-09-19T05:09:29;101403.81;;;19.49;53.71
59493;BME280;45497;43.996;22.876;2023-09-19T05:11:55;101393.22;;;19.68;53.58
59493;BME280;45497;43.996;22.876;2023-09-19T05:14:22;101392.16;;;19.76;53.18
59493;BME280;45497;43.996;22.876;2023-09-19T05:16:48;101395.44;;;19.84;52.98
59493;BME280;45497;43.996;22.876;2023-09-19T05:19:14;101400.81;;;19.84;52.95
59493;BME280;45497;43.996;22.876;2023-09-19T05:21:39;101382.09;;;19.96;52.90
59493;BME280;45497;43.996;22.876;2023-09-19T05:24:05;101386.19;;;20.05;52.53
59493;BME280;45497;43.996;22.876;2023-09-19T05:26:39;101384.97;;;20.01;52.49
59493;BME280;45497;43.996;22.876;2023-09-19T05:29:05;101375.22;;;20.07;52.26
59493;BME280;45497;43.996;22.876;2023-09-19T05:31:33;101377.28;;;20.05;52.19
59493;BME280;45497;43.996;22.876;2023-09-19T05:34:04;101368.63;;;20.03;52.25
59493;BME280;45497;43.996;22.876;2023-09-19T05:36:30;101368.19;;;20.06;52.31
59493;BME280;45497;43.996;22.876;2023-09-19T05:38:56;101365.50;;;20.06;52.28
59493;BME280;45497;43.996;22.876;2023-09-19T05:41:22;101381.78;;;20.11;52.17
59493;BME280;45497;43.996;22.876;2023-09-19T05:43:49;101368.97;;;20.13;51.93
59493;BME280;45497;43.996;22.876;2023-09-19T05:46:15;101375.53;;;20.24;51.81
59493;BME280;45497;43.996;22.876;2023-09-19T05:48:42;101387.53;;;20.21;51.87
59493;BME280;45497;43.996;22.876;2023-09-19T05:51:09;101400.00;;;20.16;52.08
59493;BME280;45497;43.996;22.876;2023-09-19T05:53:35;101405.69;;;20.01;52.09
59493;BME280;45497;43.996;22.876;2023-09-19T05:56:01;101406.75;;;19.93;52.00
59493;BME280;45497;43.996;22.876;2023-09-19T05:58:28;101397.34;;;20.09;51.80
59493;BME280;45497;43.996;22.876;2023-09-19T06:00:59;101390.72;;;20.12;51.92
59493;BME280;45497;43.996;22.876;2023-09-19T06:03:27;101371.41;;;20.15;52.09
59493;BME280;45497;43.996;22.876;2023-09-19T06:05:54;101374.75;;;20.17;52.24
59493;BME280;45497;43.996;22.876;2023-09-19T06:08:23;101394.97;;;20.26;52.10
59493;BME280;45497;43.996;22.876;2023-09-19T06:10:48;101396.22;;;20.23;52.01
59493;BME280;45497;43.996;22.876;2023-09-19T06:13:14;101405.13;;;20.24;52.28
59493;BME280;45497;43.996;22.876;2023-09-19T06:15:43;101393.72;;;20.22;52.53
59493;BME280;45497;43.996;22.876;2023-09-19T06:18:12;101406.94;;;20.30;52.49
59493;BME280;45497;43.996;22.876;2023-09-19T06:20:47;101399.66;;;20.37;52.37
59493;BME280;45497;43.996;22.876;2023-09-19T06:23:13;101398.44;;;20.33;52.32
59493;BME280;45497;43.996;22.876;2023-09-19T06:25:38;101391.97;;;20.41;52.13
59493;BME280;45497;43.996;22.876;2023-09-19T06:28:04;101388.22;;;20.42;52.27
59493;BME280;45497;43.996;22.876;2023-09-19T06:30:31;101395.28;;;20.36;52.25
59493;BME280;45497;43.996;22.876;2023-09-19T06:32:59;101384.53;;;20.36;52.06
59493;BME280;45497;43.996;22.876;2023-09-19T06:35:27;101383.28;;;20.39;52.08
59493;BME280;45497;43.996;22.876;2023-09-19T06:37:55;101386.69;;;20.53;51.81
59493;BME280;45497;43.996;22.876;2023-09-19T06:40:24;101386.03;;;20.57;51.53
59493;BME280;45497;43.996;22.876;2023-09-19T06:42:51;101391.56;;;20.69;51.41
59493;BME280;45497;43.996;22.876;2023-09-19T06:45:18;101395.56;;;20.60;51.35
59493;BME280;45497;43.996;22.876;2023-09-19T06:47:45;101387.59;;;20.40;51.57
59493;BME280;45497;43.996;22.876;2023-09-19T06:50:11;101390.94;;;20.42;51.66
59493;BME280;45497;43.996;22.876;2023-09-19T06:52:41;101384.94;;;20.65;51.55
59493;BME280;45497;43.996;22.876;2023-09-19T06:55:07;101383.72;;;20.86;51.00
59493;BME280;45497;43.996;22.876;2023-09-19T06:57:34;101384.28;;;21.32;50.22
59493;BME280;45497;43.996;22.876;2023-09-19T07:00:00;101397.69;;;21.57;49.95
59493;BME280;45497;43.996;22.876;2023-09-19T07:02:29;101397.53;;;21.33;49.55
59493;BME280;45497;43.996;22.876;2023-09-19T07:04:55;101398.66;;;21.07;49.89
59493;BME280;45497;43.996;22.876;2023-09-19T07:07:20;101404.22;;;21.12;49.79
59493;BME280;45497;43.996;22.876;2023-09-19T07:09:49;101405.06;;;20.88;49.61
59493;BME280;45497;43.996;22.876;2023-09-19T07:12:17;101407.72;;;20.69;49.75
59493;BME280;45497;43.996;22.876;2023-09-19T07:14:43;101400.03;;;20.73;49.73
59493;BME280;45497;43.996;22.876;2023-09-19T07:17:09;101400.50;;;20.88;49.62
59493;BME280;45497;43.996;22.876;2023-09-19T07:19:34;101398.34;;;20.97;49.42
59493;BME280;45497;43.996;22.876;2023-09-19T07:22:00;101401.25;;;21.14;49.29
59493;BME280;45497;43.996;22.876;2023-09-19T07:24:28;101399.19;;;21.16;49.32
59493;BME280;45497;43.996;22.876;2023-09-19T07:26:54;101399.78;;;20.99;49.48
59493;BME280;45497;43.996;22.876;2023-09-19T07:29:19;101392.13;;;20.96;49.51
59493;BME280;45497;43.996;22.876;2023-09-19T07:31:46;101399.31;;;21.03;49.49
59493;BME280;45497;43.996;22.876;2023-09-19T07:34:13;101398.28;;;21.22;49.16
59493;BME280;45497;43.996;22.876;2023-09-19T07:36:39;101387.88;;;21.26;48.83
59493;BME280;45497;43.996;22.876;2023-09-19T07:39:07;101398.88;;;21.43;48.55
59493;BME280;45497;43.996;22.876;2023-09-19T07:41:33;101388.03;;;21.31;48.67
59493;BME280;45497;43.996;22.876;2023-09-19T07:43:59;101387.22;;;21.30;48.49
59493;BME280;45497;43.996;22.876;2023-09-19T07:46:24;101382.41;;;21.32;48.33
59493;BME280;45497;43.996;22.876;2023-09-19T07:48:54;101382.69;;;21.43;48.33
59493;BME280;45497;43.996;22.876;2023-09-19T07:51:20;101368.88;;;21.57;48.18
59493;BME280;45497;43.996;22.876;2023-09-19T07:53:46;101373.19;;;21.58;48.09
59493;BME280;45497;43.996;22.876;2023-09-19T07:56:14;101381.50;;;21.38;48.42
59493;BME280;45497;43.996;22.876;2023-09-19T07:58:41;101389.59;;;21.57;48.37
59493;BME280;45497;43.996;22.876;2023-09-19T08:01:10;101385.47;;;21.73;47.96
59493;BME280;45497;43.996;22.876;2023-09-19T08:03:36;101391.00;;;21.78;47.72
59493;BME280;45497;43.996;22.876;2023-09-19T08:06:07;101384.78;;;21.77;47.73
59493;BME280;45497;43.996;22.876;2023-09-19T08:08:33;101388.91;;;21.80;47.70
59493;BME280;45497;43.996;22.876;2023-09-19T08:11:04;101386.69;;;21.77;47.35
59493;BME280;45497;43.996;22.876;2023-09-19T08:13:42;101380.72;;;21.87;47.28
59493;BME280;45497;43.996;22.876;2023-09-19T08:16:16;101379.41;;;21.77;47.31
59493;BME280;45497;43.996;22.876;2023-09-19T08:18:47;101398.72;;;21.74;47.36
59493;BME280;45497;43.996;22.876;2023-09-19T08:21:13;101378.25;;;21.85;47.48
59493;BME280;45497;43.996;22.876;2023-09-19T08:23:41;101379.13;;;21.98;47.34
59493;BME280;45497;43.996;22.876;2023-09-19T08:26:10;101381.03;;;22.09;47.18
59493;BME280;45497;43.996;22.876;2023-09-19T08:28:35;101374.50;;;22.17;47.50
59493;BME280;45497;43.996;22.876;2023-09-19T08:31:03;101374.38;;;22.23;47.39
59493;BME280;45497;43.996;22.876;2023-09-19T08:33:34;101373.66;;;22.16;47.35
59493;BME280;45497;43.996;22.876;2023-09-19T08:36:01;101374.00;;;22.20;47.28
59493;BME280;45497;43.996;22.876;2023-09-19T08:38:34;101373.09;;;22.26;46.84
59493;BME280;45497;43.996;22.876;2023-09-19T08:41:06;101373.72;;;22.28;46.86
59493;BME280;45497;43.996;22.876;2023-09-19T08:43:31;101367.13;;;22.36;47.02
59493;BME280;45497;43.996;22.876;2023-09-19T08:46:20;101379.47;;;22.43;46.48
59493;BME280;45497;43.996;22.876;2023-09-19T08:48:57;101376.31;;;22.46;46.44
59493;BME280;45497;43.996;22.876;2023-09-19T08:51:45;101379.69;;;22.30;46.40
59493;BME280;45497;43.996;22.876;2023-09-19T08:54:25;101384.94;;;22.25;46.53
59493;BME280;45497;43.996;22.876;2023-09-19T08:56:55;101378.66;;;22.43;46.22
59493;BME280;45497;43.996;22.876;2023-09-19T08:59:25;101383.84;;;22.68;46.13
59493;BME280;45497;43.996;22.876;2023-09-19T09:01:53;101392.31;;;22.71;45.63
59493;BME280;45497;43.996;22.876;2023-09-19T09:04:20;101391.50;;;22.83;45.28
59493;BME280;45497;43.996;22.876;2023-09-19T09:06:49;101387.25;;;22.75;45.36
59493;BME280;45497;43.996;22.876;2023-09-19T09:09:20;101381.97;;;22.80;45.88
59493;BME280;45497;43.996;22.876;2023-09-19T09:11:48;101381.25;;;22.97;45.76
59493;BME280;45497;43.996;22.876;2023-09-19T09:14:32;101385.63;;;22.98;45.48
59493;BME280;45497;43.996;22.876;2023-09-19T09:16:59;101382.19;;;23.02;45.20
59493;BME280;45497;43.996;22.876;2023-09-19T09:19:26;101370.94;;;23.05;45.07
59493;BME280;45497;43.996;22.876;2023-09-19T09:21:52;101366.94;;;23.08;45.08
59493;BME280;45497;43.996;22.876;2023-09-19T09:24:30;101366.53;;;23.40;44.74
59493;BME280;45497;43.996;22.876;2023-09-19T09:26:59;101371.03;;;23.63;44.37
59493;BME280;45497;43.996;22.876;2023-09-19T09:29:48;101368.59;;;23.78;44.71
59493;BME280;45497;43.996;22.876;2023-09-19T09:32:24;101369.25;;;23.97;44.35
59493;BME280;45497;43.996;22.876;2023-09-19T09:34:52;101366.13;;;23.77;43.57
59493;BME280;45497;43.996;22.876;2023-09-19T09:37:20;101366.88;;;23.72;43.88
59493;BME280;45497;43.996;22.876;2023-09-19T09:40:01;101368.16;;;23.81;43.86
59493;BME280;45497;43.996;22.876;2023-09-19T09:42:39;101355.53;;;23.87;43.93
59493;BME280;45497;43.996;22.876;2023-09-19T09:45:19;101368.81;;;23.60;43.64
59493;BME280;45497;43.996;22.876;2023-09-19T09:48:14;101364.75;;;23.74;43.82
59493;BME280;45497;43.996;22.876;2023-09-19T09:50:47;101356.09;;;23.89;43.60
59493;BME280;45497;43.996;22.876;2023-09-19T09:53:24;101349.75;;;24.12;43.36
59493;BME280;45497;43.996;22.876;2023-09-19T09:56:08;101340.38;;;24.20;43.17
59493;BME280;45497;43.996;22.876;2023-09-19T09:59:10;101350.41;;;24.19;43.20
59493;BME280;45497;43.996;22.876;2023-09-19T10:01:46;101349.88;;;24.05;43.28
59493;BME280;45497;43.996;22.876;2023-09-19T10:04:27;101342.09;;;24.09;43.22
59493;BME280;45497;43.996;22.876;2023-09-19T10:07:02;101331.59;;;24.13;42.93
59493;BME280;45497;43.996;22.876;2023-09-19T10:09:46;101318.22;;;24.06;42.94
59493;BME280;45497;43.996;22.876;2023-09-19T10:12:16;101315.13;;;24.31;42.87
59493;BME280;45497;43.996;22.876;2023-09-19T10:14:44;101308.59;;;24.49;42.47
59493;BME280;45497;43.996;22.876;2023-09-19T10:17:13;101314.34;;;24.36;42.42
59493;BME280;45497;43.996;22.876;2023-09-19T10:19:55;101316.34;;;24.40;42.54
59493;BME280;45497;43.996;22.876;2023-09-19T10:22:27;101310.81;;;24.52;42.42
59493;BME280;45497;43.996;22.876;2023-09-19T10:24:59;101320.56;;;24.70;42.20
59493;BME280;45497;43.996;22.876;2023-09-19T10:27:26;101317.63;;;24.72;42.16
59493;BME280;45497;43.996;22.876;2023-09-19T10:30:01;101319.09;;;24.79;42.16
59493;BME280;45497;43.996;22.876;2023-09-19T10:32:30;101314.66;;;24.73;42.20
59493;BME280;45497;43.996;22.876;2023-09-19T10:34:58;101305.41;;;24.69;42.06
59493;BME280;45497;43.996;22.876;2023-09-19T10:37:36;101300.63;;;24.59;42.00
59493;BME280;45497;43.996;22.876;2023-09-19T10:40:03;101305.91;;;24.49;42.23
59493;BME280;45497;43.996;22.876;2023-09-19T10:42:35;101289.78;;;24.59;42.22
59493;BME280;45497;43.996;22.876;2023-09-19T10:45:03;101292.97;;;24.73;42.20
59493;BME280;45497;43.996;22.876;2023-09-19T10:47:38;101293.94;;;24.84;42.26
59493;BME280;45497;43.996;22.876;2023-09-19T10:50:06;101297.75;;;24.88;42.11
59493;BME280;45497;43.996;22.876;2023-09-19T10:52:41;101295.38;;;24.92;42.17
59493;BME280;45497;43.996;22.876;2023-09-19T10:55:09;101291.13;;;25.01;42.15
59493;BME280;45497;43.996;22.876;2023-09-19T10:57:45;101296.13;;;25.09;41.88
59493;BME280;45497;43.996;22.876;2023-09-19T11:00:12;101297.72;;;25.05;41.71
59493;BME280;45497;43.996;22.876;2023-09-19T11:03:25;101289.03;;;25.03;41.69
59493;BME280;45497;43.996;22.876;2023-09-19T11:06:06;101287.38;;;25.02;42.03
59493;BME280;45497;43.996;22.876;2023-09-19T11:09:00;101284.28;;;24.93;42.81
59493;BME280;45497;43.996;22.876;2023-09-19T11:11:49;101278.03;;;24.93;42.85
59493;BME280;45497;43.996;22.876;2023-09-19T11:37:03;101253.25;;;25.28;42.04
59493;BME280;45497;43.996;22.876;2023-09-19T11:39:30;101247.19;;;25.21;42.54
59493;BME280;45497;43.996;22.876;2023-09-19T11:41:56;101239.41;;;25.30;42.17
59493;BME280;45497;43.996;22.876;2023-09-19T11:44:51;101238.09;;;25.32;41.55
59493;BME280;45497;43.996;22.876;2023-09-19T11:47:21;101239.63;;;25.50;41.21
59493;BME280;45497;43.996;22.876;2023-09-19T11:49:52;101233.72;;;25.59;41.29
59493;BME280;45497;43.996;22.876;2023-09-19T11:52:22;101230.84;;;25.70;41.29
59493;BME280;45497;43.996;22.876;2023-09-19T11:54:57;101215.09;;;25.72;41.38
59493;BME280;45497;43.996;22.876;2023-09-19T11:57:23;101213.19;;;25.73;41.08
59493;BME280;45497;43.996;22.876;2023-09-19T11:59:51;101208.91;;;25.77;40.72
59493;BME280;45497;43.996;22.876;2023-09-19T12:02:34;101203.63;;;25.65;40.81
59493;BME280;45497;43.996;22.876;2023-09-19T12:05:05;101192.91;;;25.81;40.78
59493;BME280;45497;43.996;22.876;2023-09-19T12:07:43;101197.66;;;25.96;40.78
59493;BME280;45497;43.996;22.876;2023-09-19T12:10:11;101190.53;;;25.89;40.51
59493;BME280;45497;43.996;22.876;2023-09-19T12:12:40;101192.31;;;25.73;40.04
59493;BME280;45497;43.996;22.876;2023-09-19T12:15:13;101187.66;;;25.69;40.08
59493;BME280;45497;43.996;22.876;2023-09-19T12:17:41;101191.75;;;25.71;40.31
59493;BME280;45497;43.996;22.876;2023-09-19T12:20:08;101185.00;;;25.79;40.06
59493;BME280;45497;43.996;22.876;2023-09-19T12:22:42;101181.50;;;25.84;39.76
59493;BME280;45497;43.996;22.876;2023-09-19T12:25:11;101183.06;;;25.74;39.66
59493;BME280;45497;43.996;22.876;2023-09-19T12:27:50;101177.38;;;25.76;39.90
59493;BME280;45497;43.996;22.876;2023-09-19T12:30:29;101177.59;;;25.64;39.57
59493;BME280;45497;43.996;22.876;2023-09-19T12:32:59;101182.09;;;25.91;39.61
59493;BME280;45497;43.996;22.876;2023-09-19T12:35:47;101183.00;;;25.97;38.84
59493;BME280;45497;43.996;22.876;2023-09-19T12:38:27;101181.44;;;26.06;39.14
59493;BME280;45497;43.996;22.876;2023-09-19T12:40:57;101177.09;;;26.10;38.79
59493;BME280;45497;43.996;22.876;2023-09-19T12:43:29;101180.09;;;26.13;39.06
59493;BME280;45497;43.996;22.876;2023-09-19T12:46:00;101177.31;;;26.03;38.89
59493;BME280;45497;43.996;22.876;2023-09-19T12:48:26;101178.50;;;26.18;38.92
59493;BME280;45497;43.996;22.876;2023-09-19T12:51:14;101177.97;;;26.21;39.08
59493;BME280;45497;43.996;22.876;2023-09-19T12:53:46;101188.53;;;26.17;38.38
59493;BME280;45497;43.996;22.876;2023-09-19T12:56:15;101175.44;;;26.09;38.64
59493;BME280;45497;43.996;22.876;2023-09-19T12:58:54;101165.75;;;26.18;38.97
59493;BME280;45497;43.996;22.876;2023-09-19T13:01:43;101171.66;;;26.10;38.40
59493;BME280;45497;43.996;22.876;2023-09-19T13:04:21;101172.47;;;26.10;38.89
59493;BME280;45497;43.996;22.876;2023-09-19T13:07:41;101164.63;;;26.19;38.44
59493;BME280;45497;43.996;22.876;2023-09-19T13:10:13;101167.16;;;26.31;38.69
59493;BME280;45497;43.996;22.876;2023-09-19T13:12:43;101169.09;;;26.41;38.40
59493;BME280;45497;43.996;22.876;2023-09-19T13:15:15;101167.47;;;26.45;38.32
59493;BME280;45497;43.996;22.876;2023-09-19T13:17:49;101168.88;;;26.58;38.21
59493;BME280;45497;43.996;22.876;2023-09-19T13:20:25;101160.72;;;26.52;38.21
59493;BME280;45497;43.996;22.876;2023-09-19T13:22:57;101164.50;;;26.46;37.98
59493;BME280;45497;43.996;22.876;2023-09-19T13:25:33;101172.69;;;26.51;37.78
59493;BME280;45497;43.996;22.876;2023-09-19T13:28:00;101171.59;;;26.52;37.81
59493;BME280;45497;43.996;22.876;2023-09-19T13:30:30;101164.03;;;26.65;37.98
59493;BME280;45497;43.996;22.876;2023-09-19T13:33:08;101160.25;;;26.66;37.79
59493;BME280;45497;43.996;22.876;2023-09-19T13:35:36;101154.56;;;26.67;38.05